sensor_id;sensor_type;location;lat;lon;timestamp;P1;durP1;ratioP1;P2;durP2;ratioP2
56331;SDS011;42237;53.340;6.812;2022-07-03T00:00:40;5.95;;;3.60;;
56331;SDS011;42237;53.340;6.812;2022-07-03T00:03:05;5.70;;;4.13;;
56331;SDS011;42237;53.340;6.812;2022-07-03T00:05:31;5.10;;;4.10;;
56331;SDS011;42237;53.340;6.812;2022-07-03T00:07:57;7.07;;;3.45;;
56331;SDS011;42237;53.340;6.812;2022-07-03T00:10:22;6.32;;;4.32;;
56331;SDS011;42237;53.340;6.812;2022-07-03T00:12:48;6.82;;;4.70;;
56331;SDS011;42237;53.340;6.812;2022-07-03T00:15:14;8.20;;;5.32;;
56331;SDS011;42237;53.340;6.812;2022-07-03T00:17:40;8.95;;;4.80;;
56331;SDS011;42237;53.340;6.812;2022-07-03T00:24:16;8.45;;;5.00;;
56331;SDS011;42237;53.340;6.812;2022-07-03T00:26:36;7.03;;;4.90;;
56331;SDS011;42237;53.340;6.812;2022-07-03T00:29:04;11.63;;;5.88;;
56331;SDS011;42237;53.340;6.812;2022-07-03T00:31:32;6.40;;;4.65;;
56331;SDS011;42237;53.340;6.812;2022-07-03T00:33:58;9.98;;;5.25;;
56331;SDS011;42237;53.340;6.812;2022-07-03T00:36:26;7.22;;;5.13;;
56331;SDS011;42237;53.340;6.812;2022-07-03T00:38:57;6.32;;;4.75;;
56331;SDS011;42237;53.340;6.812;2022-07-03T00:41:29;7.93;;;4.95;;
56331;SDS011;42237;53.340;6.812;2022-07-03T00:43:56;7.43;;;5.18;;
56331;SDS011;42237;53.340;6.812;2022-07-03T00:46:22;9.50;;;5.38;;
56331;SDS011;42237;53.340;6.812;2022-07-03T00:48:50;8.20;;;5.22;;
56331;SDS011;42237;53.340;6.812;2022-07-03T00:51:21;6.05;;;5.07;;
56331;SDS011;42237;53.340;6.812;2022-07-03T00:53:56;7.40;;;4.32;;
56331;SDS011;42237;53.340;6.812;2022-07-03T00:56:26;8.57;;;5.20;;
56331;SDS011;42237;53.340;6.812;2022-07-03T00:59:00;6.82;;;4.93;;
56331;SDS011;42237;53.340;6.812;2022-07-03T01:01:47;7.68;;;4.95;;
56331;SDS011;42237;53.340;6.812;2022-07-03T01:08:04;6.97;;;5.20;;
56331;SDS011;42237;53.340;6.812;2022-07-03T01:13:51;6.38;;;4.90;;
56331;SDS011;42237;53.340;6.812;2022-07-03T01:16:40;8.90;;;6.25;;
56331;SDS011;42237;53.340;6.812;2022-07-03T01:19:40;8.93;;;6.40;;
56331;SDS011;42237;53.340;6.812;2022-07-03T01:30:37;6.65;;;5.82;;
56331;SDS011;42237;53.340;6.812;2022-07-03T01:33:15;7.40;;;5.75;;
56331;SDS011;42237;53.340;6.812;2022-07-03T01:38:39;7.20;;;5.78;;
56331;SDS011;42237;53.340;6.812;2022-07-03T01:41:06;7.85;;;5.72;;
56331;SDS011;42237;53.340;6.812;2022-07-03T01:43:36;8.23;;;6.28;;
56331;SDS011;42237;53.340;6.812;2022-07-03T01:46:04;7.78;;;5.97;;
56331;SDS011;42237;53.340;6.812;2022-07-03T01:48:31;8.18;;;5.97;;
56331;SDS011;42237;53.340;6.812;2022-07-03T01:50:59;10.68;;;7.00;;
56331;SDS011;42237;53.340;6.812;2022-07-03T01:53:26;8.82;;;7.32;;
56331;SDS011;42237;53.340;6.812;2022-07-03T01:55:58;8.60;;;6.90;;
56331;SDS011;42237;53.340;6.812;2022-07-03T01:58:25;11.15;;;7.35;;
56331;SDS011;42237;53.340;6.812;2022-07-03T02:03:30;10.48;;;7.20;;
56331;SDS011;42237;53.340;6.812;2022-07-03T02:06:18;9.73;;;7.60;;
56331;SDS011;42237;53.340;6.812;2022-07-03T02:09:08;9.93;;;8.13;;
56331;SDS011;42237;53.340;6.812;2022-07-03T02:11:39;11.02;;;8.18;;
56331;SDS011;42237;53.340;6.812;2022-07-03T02:14:24;12.50;;;8.73;;
56331;SDS011;42237;53.340;6.812;2022-07-03T02:17:04;13.23;;;8.45;;
56331;SDS011;42237;53.340;6.812;2022-07-03T02:22:28;12.35;;;8.52;;
56331;SDS011;42237;53.340;6.812;2022-07-03T02:25:32;10.77;;;8.70;;
56331;SDS011;42237;53.340;6.812;2022-07-03T02:30:43;12.48;;;9.27;;
56331;SDS011;42237;53.340;6.812;2022-07-03T02:33:12;12.50;;;9.75;;
56331;SDS011;42237;53.340;6.812;2022-07-03T02:35:46;11.68;;;9.27;;
56331;SDS011;42237;53.340;6.812;2022-07-03T02:38:17;12.30;;;9.60;;
56331;SDS011;42237;53.340;6.812;2022-07-03T02:44:03;14.50;;;9.82;;
56331;SDS011;42237;53.340;6.812;2022-07-03T02:46:40;13.57;;;10.05;;
56331;SDS011;42237;53.340;6.812;2022-07-03T02:49:41;12.38;;;9.30;;
56331;SDS011;42237;53.340;6.812;2022-07-03T02:57:52;13.55;;;10.70;;
56331;SDS011;42237;53.340;6.812;2022-07-03T03:00:25;13.07;;;10.18;;
56331;SDS011;42237;53.340;6.812;2022-07-03T03:02:53;17.55;;;10.57;;
56331;SDS011;42237;53.340;6.812;2022-07-03T03:08:10;14.25;;;10.40;;
56331;SDS011;42237;53.340;6.812;2022-07-03T03:10:37;15.73;;;11.18;;
56331;SDS011;42237;53.340;6.812;2022-07-03T03:13:13;13.73;;;9.77;;
56331;SDS011;42237;53.340;6.812;2022-07-03T03:18:44;15.13;;;11.63;;
56331;SDS011;42237;53.340;6.812;2022-07-03T03:21:13;13.57;;;10.43;;
56331;SDS011;42237;53.340;6.812;2022-07-03T03:26:08;15.07;;;10.27;;
56331;SDS011;42237;53.340;6.812;2022-07-03T03:28:35;10.10;;;8.95;;
56331;SDS011;42237;53.340;6.812;2022-07-03T03:31:01;12.85;;;9.73;;
56331;SDS011;42237;53.340;6.812;2022-07-03T03:33:31;11.73;;;9.70;;
56331;SDS011;42237;53.340;6.812;2022-07-03T03:36:07;16.70;;;10.70;;
56331;SDS011;42237;53.340;6.812;2022-07-03T03:38:36;17.15;;;11.57;;
56331;SDS011;42237;53.340;6.812;2022-07-03T03:41:02;16.75;;;11.85;;
56331;SDS011;42237;53.340;6.812;2022-07-03T03:43:31;15.32;;;10.18;;
56331;SDS011;42237;53.340;6.812;2022-07-03T03:45:58;13.63;;;10.60;;
56331;SDS011;42237;53.340;6.812;2022-07-03T03:48:25;13.50;;;11.27;;
56331;SDS011;42237;53.340;6.812;2022-07-03T03:50:52;18.65;;;11.23;;
56331;SDS011;42237;53.340;6.812;2022-07-03T03:53:18;16.30;;;11.35;;
56331;SDS011;42237;53.340;6.812;2022-07-03T03:58:24;16.73;;;12.40;;
56331;SDS011;42237;53.340;6.812;2022-07-03T04:00:54;18.35;;;13.55;;
56331;SDS011;42237;53.340;6.812;2022-07-03T04:03:27;17.90;;;11.82;;
56331;SDS011;42237;53.340;6.812;2022-07-03T04:05:53;14.63;;;12.30;;
56331;SDS011;42237;53.340;6.812;2022-07-03T04:08:34;17.17;;;12.38;;
56331;SDS011;42237;53.340;6.812;2022-07-03T04:11:00;17.42;;;12.38;;
56331;SDS011;42237;53.340;6.812;2022-07-03T04:13:28;15.65;;;12.77;;
56331;SDS011;42237;53.340;6.812;2022-07-03T04:15:54;17.83;;;13.00;;
56331;SDS011;42237;53.340;6.812;2022-07-03T04:18:20;15.85;;;11.88;;
56331;SDS011;42237;53.340;6.812;2022-07-03T04:20:46;16.70;;;12.52;;
56331;SDS011;42237;53.340;6.812;2022-07-03T04:23:12;17.02;;;12.88;;
56331;SDS011;42237;53.340;6.812;2022-07-03T04:25:38;16.52;;;12.38;;
56331;SDS011;42237;53.340;6.812;2022-07-03T04:28:04;17.23;;;12.18;;
56331;SDS011;42237;53.340;6.812;2022-07-03T04:30:29;14.98;;;12.70;;
56331;SDS011;42237;53.340;6.812;2022-07-03T04:32:55;16.55;;;11.93;;
56331;SDS011;42237;53.340;6.812;2022-07-03T04:35:21;14.52;;;11.77;;
56331;SDS011;42237;53.340;6.812;2022-07-03T04:37:46;11.68;;;10.40;;
56331;SDS011;42237;53.340;6.812;2022-07-03T04:40:18;18.42;;;12.75;;
56331;SDS011;42237;53.340;6.812;2022-07-03T04:42:44;16.45;;;12.77;;
56331;SDS011;42237;53.340;6.812;2022-07-03T04:45:09;16.33;;;12.45;;
56331;SDS011;42237;53.340;6.812;2022-07-03T04:47:35;15.88;;;12.13;;
56331;SDS011;42237;53.340;6.812;2022-07-03T04:50:01;13.95;;;12.13;;
56331;SDS011;42237;53.340;6.812;2022-07-03T04:52:27;14.05;;;11.85;;
56331;SDS011;42237;53.340;6.812;2022-07-03T04:54:52;16.08;;;12.05;;
56331;SDS011;42237;53.340;6.812;2022-07-03T04:57:27;14.05;;;11.93;;
56331;SDS011;42237;53.340;6.812;2022-07-03T05:00:06;13.77;;;11.90;;
56331;SDS011;42237;53.340;6.812;2022-07-03T05:02:35;16.05;;;11.80;;
56331;SDS011;42237;53.340;6.812;2022-07-03T05:05:01;13.75;;;11.27;;
56331;SDS011;42237;53.340;6.812;2022-07-03T05:07:29;15.43;;;11.65;;
56331;SDS011;42237;53.340;6.812;2022-07-03T05:09:55;12.90;;;11.52;;
56331;SDS011;42237;53.340;6.812;2022-07-03T05:12:21;20.30;;;11.60;;
56331;SDS011;42237;53.340;6.812;2022-07-03T05:15:01;12.25;;;10.85;;
56331;SDS011;42237;53.340;6.812;2022-07-03T05:17:33;13.98;;;10.80;;
56331;SDS011;42237;53.340;6.812;2022-07-03T05:20:17;12.68;;;11.13;;
56331;SDS011;42237;53.340;6.812;2022-07-03T05:23:01;14.57;;;11.77;;
56331;SDS011;42237;53.340;6.812;2022-07-03T05:25:28;14.70;;;11.80;;
56331;SDS011;42237;53.340;6.812;2022-07-03T05:28:00;13.00;;;11.57;;
56331;SDS011;42237;53.340;6.812;2022-07-03T05:30:30;12.38;;;11.05;;
56331;SDS011;42237;53.340;6.812;2022-07-03T05:32:56;16.35;;;11.63;;
56331;SDS011;42237;53.340;6.812;2022-07-03T05:35:23;15.23;;;11.35;;
56331;SDS011;42237;53.340;6.812;2022-07-03T05:38:21;15.10;;;11.80;;
56331;SDS011;42237;53.340;6.812;2022-07-03T05:41:37;14.98;;;11.23;;
56331;SDS011;42237;53.340;6.812;2022-07-03T05:44:06;15.82;;;9.80;;
56331;SDS011;42237;53.340;6.812;2022-07-03T05:46:31;12.27;;;10.27;;
56331;SDS011;42237;53.340;6.812;2022-07-03T05:48:57;13.32;;;10.73;;
56331;SDS011;42237;53.340;6.812;2022-07-03T05:51:33;12.35;;;10.25;;
56331;SDS011;42237;53.340;6.812;2022-07-03T05:53:59;17.77;;;10.25;;
56331;SDS011;42237;53.340;6.812;2022-07-03T05:56:24;14.50;;;10.65;;
56331;SDS011;42237;53.340;6.812;2022-07-03T05:59:13;11.20;;;9.90;;
56331;SDS011;42237;53.340;6.812;2022-07-03T06:01:47;17.08;;;10.65;;
56331;SDS011;42237;53.340;6.812;2022-07-03T06:04:22;9.93;;;8.85;;
56331;SDS011;42237;53.340;6.812;2022-07-03T06:06:47;9.73;;;8.73;;
56331;SDS011;42237;53.340;6.812;2022-07-03T06:09:13;13.30;;;9.30;;
56331;SDS011;42237;53.340;6.812;2022-07-03T06:12:06;11.38;;;8.32;;
56331;SDS011;42237;53.340;6.812;2022-07-03T06:14:32;12.88;;;8.68;;
56331;SDS011;42237;53.340;6.812;2022-07-03T06:16:58;9.73;;;7.43;;
56331;SDS011;42237;53.340;6.812;2022-07-03T06:19:34;8.77;;;6.90;;
56331;SDS011;42237;53.340;6.812;2022-07-03T06:22:00;14.45;;;7.13;;
56331;SDS011;42237;53.340;6.812;2022-07-03T06:24:34;10.55;;;6.53;;
56331;SDS011;42237;53.340;6.812;2022-07-03T06:27:00;8.18;;;6.88;;
56331;SDS011;42237;53.340;6.812;2022-07-03T06:29:31;8.50;;;6.93;;
56331;SDS011;42237;53.340;6.812;2022-07-03T06:32:05;9.38;;;5.95;;
56331;SDS011;42237;53.340;6.812;2022-07-03T06:34:31;8.82;;;5.82;;
56331;SDS011;42237;53.340;6.812;2022-07-03T06:36:59;8.35;;;5.93;;
56331;SDS011;42237;53.340;6.812;2022-07-03T06:39:24;7.53;;;5.63;;
56331;SDS011;42237;53.340;6.812;2022-07-03T06:41:59;6.55;;;5.43;;
56331;SDS011;42237;53.340;6.812;2022-07-03T06:44:24;6.90;;;4.85;;
56331;SDS011;42237;53.340;6.812;2022-07-03T06:46:50;9.00;;;5.35;;
56331;SDS011;42237;53.340;6.812;2022-07-03T06:49:16;7.10;;;3.70;;
56331;SDS011;42237;53.340;6.812;2022-07-03T06:51:44;7.10;;;2.50;;
56331;SDS011;42237;53.340;6.812;2022-07-03T06:54:10;6.18;;;3.08;;
56331;SDS011;42237;53.340;6.812;2022-07-03T06:56:36;7.35;;;3.28;;
56331;SDS011;42237;53.340;6.812;2022-07-03T06:59:02;3.78;;;2.70;;
56331;SDS011;42237;53.340;6.812;2022-07-03T07:01:28;4.20;;;2.60;;
56331;SDS011;42237;53.340;6.812;2022-07-03T07:03:54;5.00;;;2.92;;
56331;SDS011;42237;53.340;6.812;2022-07-03T07:06:25;6.00;;;3.15;;
56331;SDS011;42237;53.340;6.812;2022-07-03T07:08:53;5.05;;;2.40;;
56331;SDS011;42237;53.340;6.812;2022-07-03T07:11:37;5.20;;;2.17;;
56331;SDS011;42237;53.340;6.812;2022-07-03T07:17:36;4.22;;;1.90;;
56331;SDS011;42237;53.340;6.812;2022-07-03T07:20:02;5.85;;;1.90;;
56331;SDS011;42237;53.340;6.812;2022-07-03T07:22:28;16.63;;;3.08;;
56331;SDS011;42237;53.340;6.812;2022-07-03T07:24:54;4.50;;;1.90;;
56331;SDS011;42237;53.340;6.812;2022-07-03T07:27:32;6.13;;;1.85;;
56331;SDS011;42237;53.340;6.812;2022-07-03T07:29:57;4.70;;;1.60;;
56331;SDS011;42237;53.340;6.812;2022-07-03T07:32:23;4.05;;;1.95;;
56331;SDS011;42237;53.340;6.812;2022-07-03T07:34:51;3.63;;;2.13;;
56331;SDS011;42237;53.340;6.812;2022-07-03T07:37:17;4.93;;;2.50;;
56331;SDS011;42237;53.340;6.812;2022-07-03T07:39:57;4.90;;;2.53;;
56331;SDS011;42237;53.340;6.812;2022-07-03T07:42:24;5.32;;;3.15;;
56331;SDS011;42237;53.340;6.812;2022-07-03T07:44:53;7.38;;;3.30;;
56331;SDS011;42237;53.340;6.812;2022-07-03T07:47:26;5.43;;;2.80;;
56331;SDS011;42237;53.340;6.812;2022-07-03T07:49:58;6.20;;;3.33;;
56331;SDS011;42237;53.340;6.812;2022-07-03T07:52:33;6.05;;;3.10;;
56331;SDS011;42237;53.340;6.812;2022-07-03T07:55:00;5.47;;;2.72;;
56331;SDS011;42237;53.340;6.812;2022-07-03T07:57:35;2.95;;;2.40;;
56331;SDS011;42237;53.340;6.812;2022-07-03T08:00:05;3.78;;;2.20;;
56331;SDS011;42237;53.340;6.812;2022-07-03T08:02:40;5.20;;;2.38;;
56331;SDS011;42237;53.340;6.812;2022-07-03T08:05:25;6.68;;;2.03;;
56331;SDS011;42237;53.340;6.812;2022-07-03T08:08:13;4.43;;;1.83;;
56331;SDS011;42237;53.340;6.812;2022-07-03T08:10:41;3.80;;;1.65;;
56331;SDS011;42237;53.340;6.812;2022-07-03T08:13:11;4.07;;;1.67;;
56331;SDS011;42237;53.340;6.812;2022-07-03T08:15:38;4.43;;;1.50;;
56331;SDS011;42237;53.340;6.812;2022-07-03T08:18:05;5.68;;;2.10;;
56331;SDS011;42237;53.340;6.812;2022-07-03T08:20:31;3.05;;;1.60;;
56331;SDS011;42237;53.340;6.812;2022-07-03T08:22:58;4.65;;;1.80;;
56331;SDS011;42237;53.340;6.812;2022-07-03T08:29:28;3.33;;;1.63;;
56331;SDS011;42237;53.340;6.812;2022-07-03T08:32:03;4.13;;;2.40;;
56331;SDS011;42237;53.340;6.812;2022-07-03T08:34:29;2.47;;;1.75;;
56331;SDS011;42237;53.340;6.812;2022-07-03T08:36:55;3.80;;;2.38;;
56331;SDS011;42237;53.340;6.812;2022-07-03T08:39:21;8.57;;;2.50;;
56331;SDS011;42237;53.340;6.812;2022-07-03T08:42:05;4.55;;;2.70;;
56331;SDS011;42237;53.340;6.812;2022-07-03T08:44:31;3.72;;;2.22;;
56331;SDS011;42237;53.340;6.812;2022-07-03T08:47:14;5.72;;;2.00;;
56331;SDS011;42237;53.340;6.812;2022-07-03T08:49:42;3.90;;;2.00;;
56331;SDS011;42237;53.340;6.812;2022-07-03T08:52:08;5.55;;;2.00;;
56331;SDS011;42237;53.340;6.812;2022-07-03T08:54:36;3.92;;;1.50;;
56331;SDS011;42237;53.340;6.812;2022-07-03T08:57:03;3.67;;;1.80;;
56331;SDS011;42237;53.340;6.812;2022-07-03T08:59:54;5.53;;;1.73;;
56331;SDS011;42237;53.340;6.812;2022-07-03T09:02:33;3.55;;;1.50;;
56331;SDS011;42237;53.340;6.812;2022-07-03T09:05:12;3.42;;;1.50;;
56331;SDS011;42237;53.340;6.812;2022-07-03T09:07:54;4.40;;;1.60;;
56331;SDS011;42237;53.340;6.812;2022-07-03T09:10:24;4.90;;;1.70;;
56331;SDS011;42237;53.340;6.812;2022-07-03T09:15:15;3.53;;;1.60;;
56331;SDS011;42237;53.340;6.812;2022-07-03T09:20:40;2.70;;;1.17;;
56331;SDS011;42237;53.340;6.812;2022-07-03T09:28:57;2.33;;;1.20;;
56331;SDS011;42237;53.340;6.812;2022-07-03T09:34:33;2.38;;;0.95;;
56331;SDS011;42237;53.340;6.812;2022-07-03T09:36:58;4.35;;;1.10;;
56331;SDS011;42237;53.340;6.812;2022-07-03T09:39:33;7.78;;;1.80;;
56331;SDS011;42237;53.340;6.812;2022-07-03T09:42:16;2.58;;;1.15;;
56331;SDS011;42237;53.340;6.812;2022-07-03T09:44:45;3.17;;;1.13;;
56331;SDS011;42237;53.340;6.812;2022-07-03T09:50:06;2.20;;;1.20;;
56331;SDS011;42237;53.340;6.812;2022-07-03T09:52:43;2.10;;;1.25;;
56331;SDS011;42237;53.340;6.812;2022-07-03T09:57:41;2.03;;;1.10;;
56331;SDS011;42237;53.340;6.812;2022-07-03T10:00:37;2.60;;;0.90;;
56331;SDS011;42237;53.340;6.812;2022-07-03T10:11:28;0.98;;;0.70;;
56331;SDS011;42237;53.340;6.812;2022-07-03T10:16:50;1.10;;;0.70;;
56331;SDS011;42237;53.340;6.812;2022-07-03T10:25:36;3.45;;;0.82;;
56331;SDS011;42237;53.340;6.812;2022-07-03T10:28:44;3.03;;;1.05;;
56331;SDS011;42237;53.340;6.812;2022-07-03T10:34:16;2.20;;;0.80;;
56331;SDS011;42237;53.340;6.812;2022-07-03T10:37:09;2.40;;;0.88;;
56331;SDS011;42237;53.340;6.812;2022-07-03T10:42:50;2.90;;;0.90;;
56331;SDS011;42237;53.340;6.812;2022-07-03T10:46:04;1.95;;;0.98;;
56331;SDS011;42237;53.340;6.812;2022-07-03T11:05:04;1.98;;;0.93;;
56331;SDS011;42237;53.340;6.812;2022-07-03T11:10:30;2.03;;;0.88;;
56331;SDS011;42237;53.340;6.812;2022-07-03T11:13:09;2.33;;;0.80;;
56331;SDS011;42237;53.340;6.812;2022-07-03T11:18:18;1.38;;;0.60;;
56331;SDS011;42237;53.340;6.812;2022-07-03T11:21:16;2.83;;;0.80;;
56331;SDS011;42237;53.340;6.812;2022-07-03T11:24:09;3.00;;;0.80;;
56331;SDS011;42237;53.340;6.812;2022-07-03T11:29:58;2.70;;;0.98;;
56331;SDS011;42237;53.340;6.812;2022-07-03T11:38:20;2.13;;;0.80;;
56331;SDS011;42237;53.340;6.812;2022-07-03T11:41:17;3.03;;;1.40;;
56331;SDS011;42237;53.340;6.812;2022-07-03T11:43:52;2.30;;;1.00;;
56331;SDS011;42237;53.340;6.812;2022-07-03T11:47:04;8.68;;;2.00;;
56331;SDS011;42237;53.340;6.812;2022-07-03T11:49:36;9.73;;;2.60;;
56331;SDS011;42237;53.340;6.812;2022-07-03T11:52:13;12.27;;;2.30;;
56331;SDS011;42237;53.340;6.812;2022-07-03T11:54:51;9.50;;;3.10;;
56331;SDS011;42237;53.340;6.812;2022-07-03T11:57:19;8.98;;;2.35;;
56331;SDS011;42237;53.340;6.812;2022-07-03T11:59:45;13.23;;;3.08;;
56331;SDS011;42237;53.340;6.812;2022-07-03T12:05:24;10.07;;;2.95;;
56331;SDS011;42237;53.340;6.812;2022-07-03T12:08:05;6.85;;;3.15;;
56331;SDS011;42237;53.340;6.812;2022-07-03T12:10:40;11.68;;;2.92;;
56331;SDS011;42237;53.340;6.812;2022-07-03T12:13:25;6.60;;;2.75;;
56331;SDS011;42237;53.340;6.812;2022-07-03T16:39:25;4.50;;;2.20;;
56331;SDS011;42237;53.340;6.812;2022-07-03T16:41:56;3.22;;;1.85;;
